createdAt,value
2023-01-07T00:01:31.885Z,8.52
2023-01-07T00:06:47.566Z,7.27
2023-01-07T00:09:22.964Z,7.22
2023-01-07T00:11:58.882Z,8.30
2023-01-07T00:14:34.487Z,9.45
2023-01-07T00:17:12.701Z,8.80
2023-01-07T00:19:48.543Z,8.07
2023-01-07T00:22:27.613Z,7.88
2023-01-07T00:25:02.685Z,9.32
2023-01-07T00:27:39.079Z,9.07
2023-01-07T00:30:16.914Z,8.43
2023-01-07T00:32:59.970Z,7.00
2023-01-07T00:35:37.791Z,8.48
2023-01-07T00:38:08.611Z,9.30
2023-01-07T00:40:47.782Z,9.13
2023-01-07T00:43:23.574Z,7.93
2023-01-07T00:45:58.731Z,8.45
2023-01-07T00:48:33.715Z,8.43
2023-01-07T00:51:09.481Z,8.53
2023-01-07T00:53:44.796Z,7.33
2023-01-07T00:56:22.970Z,8.60
2023-01-07T00:58:58.202Z,11.38
2023-01-07T01:01:35.303Z,8.70
2023-01-07T01:04:11.436Z,9.27
2023-01-07T01:06:46.112Z,12.13
2023-01-07T01:09:22.770Z,9.57
2023-01-07T01:12:01.299Z,10.27
2023-01-07T01:14:35.641Z,11.38
2023-01-07T01:17:10.579Z,15.85
2023-01-07T01:19:47.820Z,18.17
2023-01-07T01:22:26.069Z,14.50
2023-01-07T01:25:01.156Z,15.35
2023-01-07T01:27:38.787Z,11.60
2023-01-07T01:30:15.708Z,11.50
2023-01-07T01:32:51.828Z,12.43
2023-01-07T01:38:04.200Z,10.80
2023-01-07T01:40:42.759Z,10.40
2023-01-07T01:43:36.039Z,8.80
2023-01-07T01:46:15.388Z,11.20
2023-01-07T01:48:52.028Z,12.23
2023-01-07T01:51:22.492Z,11.10
2023-01-07T01:53:58.171Z,11.70
2023-01-07T01:56:33.974Z,10.20
2023-01-07T01:59:13.051Z,10.18
2023-01-07T02:01:51.149Z,12.18
2023-01-07T02:04:30.404Z,10.10
2023-01-07T02:07:07.118Z,9.50
2023-01-07T02:09:49.225Z,8.68
2023-01-07T02:12:30.061Z,9.20
2023-01-07T02:15:12.250Z,8.65
2023-01-07T02:18:00.095Z,7.55
2023-01-07T02:20:33.117Z,10.73
2023-01-07T02:23:52.372Z,9.10
2023-01-07T02:26:41.165Z,8.35
2023-01-07T02:30:00.945Z,11.35
2023-01-07T02:32:47.245Z,11.98
2023-01-07T02:35:21.996Z,14.00
2023-01-07T02:38:02.459Z,10.98
2023-01-07T02:40:42.125Z,11.73
2023-01-07T02:43:19.821Z,11.35
2023-01-07T02:45:58.620Z,9.65
2023-01-07T02:48:37.105Z,11.33
2023-01-07T02:51:12.978Z,12.88
2023-01-07T02:53:52.217Z,17.27
2023-01-07T02:56:26.231Z,19.20
2023-01-07T02:59:14.707Z,24.05
2023-01-07T03:02:11.218Z,38.75
2023-01-07T03:05:05.475Z,114.70
2023-01-07T03:07:47.112Z,29.48
2023-01-07T03:10:25.838Z,25.40
2023-01-07T03:13:03.969Z,21.63
2023-01-07T03:15:40.997Z,22.08
2023-01-07T03:18:17.925Z,17.75
2023-01-07T03:20:56.792Z,16.95
2023-01-07T03:23:32.023Z,14.20
2023-01-07T03:26:07.958Z,16.77
2023-01-07T03:28:43.823Z,14.30
2023-01-07T03:31:19.449Z,16.50
2023-01-07T03:33:55.910Z,18.00
2023-01-07T03:36:35.138Z,12.23
2023-01-07T03:39:11.341Z,18.05
2023-01-07T03:41:59.586Z,57.20
2023-01-07T03:44:37.511Z,23.50
2023-01-07T03:47:17.352Z,98.25
2023-01-07T03:49:51.717Z,19.13
2023-01-07T03:52:30.966Z,15.35
2023-01-07T03:55:06.630Z,15.25
2023-01-07T03:57:41.979Z,13.40
2023-01-07T04:00:19.038Z,12.38
2023-01-07T04:03:02.495Z,10.65
2023-01-07T04:05:45.565Z,10.55
2023-01-07T04:08:26.111Z,13.48
2023-01-07T04:11:02.891Z,13.25
2023-01-07T04:13:39.074Z,11.00
2023-01-07T04:18:54.573Z,11.85
2023-01-07T04:21:30.562Z,12.10
2023-01-07T04:24:10.471Z,20.20
2023-01-07T04:26:47.366Z,22.63
2023-01-07T04:29:22.707Z,13.20
2023-01-07T04:31:58.734Z,51.63
2023-01-07T04:34:33.425Z,118.53
2023-01-07T04:37:08.283Z,10.00
2023-01-07T04:39:48.057Z,11.95
2023-01-07T04:42:24.725Z,11.45
2023-01-07T04:45:02.861Z,11.40
2023-01-07T04:47:37.625Z,10.73
2023-01-07T04:50:13.981Z,13.90
2023-01-07T04:52:49.699Z,9.48
2023-01-07T04:55:27.919Z,11.02
2023-01-07T04:58:03.659Z,14.85
2023-01-07T05:00:39.387Z,16.17
2023-01-07T05:03:13.511Z,12.20
2023-01-07T05:05:48.873Z,15.97
2023-01-07T05:08:24.614Z,11.15
2023-01-07T05:11:05.626Z,11.63
2023-01-07T05:13:42.332Z,10.77
2023-01-07T05:16:17.054Z,16.70
2023-01-07T05:18:52.581Z,19.65
2023-01-07T05:21:29.016Z,15.00
2023-01-07T05:24:04.025Z,16.40
2023-01-07T05:26:41.905Z,12.25
2023-01-07T05:29:19.169Z,14.40
2023-01-07T05:31:54.662Z,11.82
2023-01-07T05:34:31.083Z,13.23
2023-01-07T05:37:07.472Z,13.65
2023-01-07T05:39:43.586Z,20.35
2023-01-07T05:42:26.016Z,23.00
2023-01-07T05:45:01.060Z,21.30
2023-01-07T05:47:35.814Z,24.87
2023-01-07T05:50:11.511Z,25.33
2023-01-07T05:52:46.545Z,29.45
2023-01-07T05:55:22.497Z,27.05
2023-01-07T05:58:00.024Z,24.00
2023-01-07T06:00:34.805Z,23.95
2023-01-07T06:03:09.933Z,15.73
2023-01-07T06:05:44.938Z,15.30
2023-01-07T06:08:19.598Z,17.48
2023-01-07T06:10:55.506Z,16.88
2023-01-07T06:13:33.496Z,11.77
2023-01-07T06:16:08.437Z,17.30
2023-01-07T06:18:45.826Z,28.30
2023-01-07T06:21:21.820Z,35.53
2023-01-07T06:23:59.548Z,43.53
2023-01-07T06:26:34.464Z,28.10
2023-01-07T06:29:11.280Z,21.67
2023-01-07T06:31:46.481Z,18.43
2023-01-07T06:34:20.647Z,21.43
2023-01-07T06:37:01.388Z,18.10
2023-01-07T06:39:35.945Z,13.85
2023-01-07T06:42:10.056Z,16.63
2023-01-07T06:44:48.697Z,22.33
2023-01-07T06:47:25.535Z,18.45
2023-01-07T06:50:00.629Z,21.25
2023-01-07T06:52:36.480Z,21.73
2023-01-07T06:55:11.227Z,20.92
2023-01-07T06:57:46.582Z,23.25
2023-01-07T07:00:25.046Z,25.55
2023-01-07T07:02:59.769Z,24.90
2023-01-07T07:05:36.041Z,18.92
2023-01-07T07:08:12.171Z,25.05
2023-01-07T07:10:48.401Z,27.42
2023-01-07T07:16:01.540Z,19.77
2023-01-07T07:18:38.928Z,18.70
2023-01-07T07:21:13.939Z,20.30
2023-01-07T07:23:50.887Z,24.95
2023-01-07T07:26:26.591Z,25.48
2023-01-07T07:29:01.603Z,28.40
2023-01-07T07:31:40.271Z,26.88
2023-01-07T07:34:15.873Z,23.08
2023-01-07T07:36:52.524Z,18.55
2023-01-07T07:39:29.547Z,24.17
2023-01-07T07:42:07.315Z,17.95
2023-01-07T07:44:44.649Z,22.50
2023-01-07T07:47:24.349Z,24.45
2023-01-07T07:50:00.862Z,20.05
2023-01-07T07:52:39.446Z,22.73
2023-01-07T07:55:19.924Z,18.13
2023-01-07T07:57:58.729Z,21.93
2023-01-07T08:00:34.787Z,24.10
2023-01-07T08:03:13.300Z,24.15
2023-01-07T08:05:47.785Z,20.92
2023-01-07T08:08:28.055Z,22.47
2023-01-07T08:11:03.534Z,15.73
2023-01-07T08:13:41.434Z,21.63
2023-01-07T08:16:16.437Z,20.92
2023-01-07T08:18:55.266Z,27.15
2023-01-07T08:21:30.257Z,21.85
2023-01-07T08:24:05.598Z,24.40
2023-01-07T08:26:41.738Z,22.40
2023-01-07T08:29:18.214Z,26.02
2023-01-07T08:31:53.988Z,38.15
2023-01-07T08:34:32.430Z,35.72
2023-01-07T08:37:07.509Z,37.88
2023-01-07T08:39:42.095Z,31.90
2023-01-07T08:42:17.652Z,24.40
2023-01-07T08:44:56.372Z,24.77
2023-01-07T08:47:31.693Z,39.83
2023-01-07T08:50:10.474Z,50.40
2023-01-07T08:52:45.062Z,68.90
2023-01-07T08:55:19.786Z,49.17
2023-01-07T08:57:56.069Z,41.17
2023-01-07T09:00:31.343Z,36.93
2023-01-07T09:03:06.618Z,38.13
2023-01-07T09:05:44.916Z,76.13
2023-01-07T09:08:19.164Z,41.70
2023-01-07T09:10:54.703Z,32.67
2023-01-07T09:13:32.430Z,34.53
2023-01-07T09:16:08.174Z,38.50
2023-01-07T09:18:44.104Z,36.40
2023-01-07T09:21:21.559Z,32.90
2023-01-07T09:23:57.519Z,35.33
2023-01-07T09:26:33.591Z,29.50
2023-01-07T09:31:45.114Z,34.20
2023-01-07T09:34:21.852Z,33.40
2023-01-07T09:37:00.114Z,33.20
2023-01-07T09:39:36.361Z,33.05
2023-01-07T09:42:15.716Z,30.98
2023-01-07T09:45:00.958Z,30.35
2023-01-07T09:47:38.305Z,30.52
2023-01-07T09:50:17.914Z,31.45
2023-01-07T09:52:58.131Z,27.00
2023-01-07T09:55:34.996Z,25.10
2023-01-07T09:58:12.304Z,22.67
2023-01-07T10:00:53.276Z,22.10
2023-01-07T10:03:50.495Z,22.98
2023-01-07T10:06:42.044Z,25.23
2023-01-07T10:09:26.415Z,33.83
2023-01-07T10:12:03.799Z,38.40
2023-01-07T10:14:55.439Z,37.97
2023-01-07T10:17:36.958Z,34.72
2023-01-07T10:20:16.241Z,35.35
2023-01-07T10:22:54.240Z,27.60
2023-01-07T10:25:33.520Z,28.20
2023-01-07T10:28:10.457Z,26.08
2023-01-07T10:30:46.554Z,24.77
2023-01-07T10:36:04.781Z,18.00
2023-01-07T10:38:40.934Z,20.70
2023-01-07T10:44:04.373Z,18.10
2023-01-07T10:46:46.882Z,13.38
2023-01-07T10:49:32.176Z,11.37
2023-01-07T10:52:20.055Z,15.32
2023-01-07T10:55:17.240Z,11.90
2023-01-07T10:57:49.819Z,11.77
2023-01-07T11:00:28.527Z,11.82
2023-01-07T11:03:03.044Z,12.15
2023-01-07T11:05:40.586Z,15.53
2023-01-07T11:08:18.753Z,15.73
2023-01-07T11:10:57.421Z,13.57
2023-01-07T11:13:34.771Z,11.88
2023-01-07T11:16:13.865Z,16.02
2023-01-07T11:18:52.626Z,13.77
2023-01-07T11:21:42.669Z,14.10
2023-01-07T11:24:34.237Z,11.85
2023-01-07T11:27:10.885Z,10.02
2023-01-07T11:29:49.537Z,11.95
2023-01-07T11:32:29.843Z,9.88
2023-01-07T11:35:05.346Z,8.95
2023-01-07T11:37:41.459Z,8.85
2023-01-07T11:42:59.831Z,11.38
2023-01-07T11:45:35.703Z,9.43
2023-01-07T11:48:18.953Z,9.47
2023-01-07T11:50:59.982Z,10.43
2023-01-07T11:53:38.059Z,10.15
2023-01-07T11:56:14.989Z,11.15
2023-01-07T11:58:52.630Z,9.10
2023-01-07T12:01:29.206Z,10.60
2023-01-07T12:04:16.256Z,11.93
2023-01-07T12:06:54.361Z,12.90
2023-01-07T12:09:37.701Z,13.07
2023-01-07T12:12:26.839Z,12.88
2023-01-07T12:15:03.111Z,9.48
2023-01-07T12:17:39.687Z,13.55
2023-01-07T12:20:36.201Z,9.40
2023-01-07T12:23:18.878Z,11.07
2023-01-07T12:25:53.236Z,9.70
2023-01-07T12:28:31.877Z,10.20
2023-01-07T12:31:34.898Z,9.57
2023-01-07T12:34:14.057Z,8.45
2023-01-07T12:36:50.252Z,9.43
2023-01-07T12:39:27.441Z,10.00
2023-01-07T12:42:05.487Z,11.70
2023-01-07T12:44:40.097Z,10.85
2023-01-07T12:47:31.087Z,11.90
2023-01-07T12:50:10.941Z,10.17
2023-01-07T12:52:44.860Z,10.13
2023-01-07T12:55:22.388Z,10.07
2023-01-07T12:58:06.633Z,7.80
2023-01-07T13:00:47.614Z,8.50
2023-01-07T13:03:28.460Z,8.00
2023-01-07T13:06:05.239Z,6.53
2023-01-07T13:08:44.513Z,6.90
2023-01-07T13:11:42.982Z,7.35
2023-01-07T13:14:21.544Z,5.87
2023-01-07T13:16:57.094Z,5.30
2023-01-07T13:19:35.301Z,5.47
2023-01-07T13:22:12.240Z,6.25
2023-01-07T13:24:56.559Z,6.80
2023-01-07T13:27:30.913Z,5.45
2023-01-07T13:30:14.074Z,6.25
2023-01-07T13:32:59.897Z,7.35
2023-01-07T13:35:56.696Z,5.70
2023-01-07T13:38:48.086Z,6.30
2023-01-07T13:41:36.515Z,6.70
2023-01-07T13:44:10.733Z,5.55
2023-01-07T13:46:47.574Z,5.57
2023-01-07T13:49:28.581Z,5.97
2023-01-07T13:52:16.097Z,5.43
2023-01-07T13:55:03.992Z,5.60
2023-01-07T13:57:49.242Z,5.20
2023-01-07T14:00:45.720Z,6.63
2023-01-07T14:03:52.446Z,7.95
2023-01-07T14:06:50.727Z,8.17
2023-01-07T14:09:37.790Z,4.95
2023-01-07T14:12:33.661Z,5.38
2023-01-07T14:15:41.694Z,5.50
2023-01-07T14:18:49.215Z,4.07
2023-01-07T14:24:08.752Z,4.10
2023-01-07T14:26:49.838Z,3.67
2023-01-07T14:29:38.064Z,4.10
2023-01-07T14:32:29.225Z,4.35
2023-01-07T14:35:07.915Z,3.15
2023-01-07T14:37:44.542Z,4.22
2023-01-07T14:41:03.569Z,4.53
2023-01-07T14:44:12.379Z,3.97
2023-01-07T14:46:44.951Z,7.10
2023-01-07T14:49:49.469Z,5.97
2023-01-07T14:52:53.483Z,11.27
2023-01-07T14:55:42.637Z,5.50
2023-01-07T14:58:59.068Z,8.18
2023-01-07T15:01:54.945Z,10.48
2023-01-07T15:04:44.767Z,9.35
2023-01-07T15:07:21.708Z,11.18
2023-01-07T15:10:09.707Z,15.25
2023-01-07T15:13:09.697Z,11.98
2023-01-07T15:15:57.353Z,15.95
2023-01-07T15:18:35.656Z,11.70
2023-01-07T15:21:18.996Z,22.13
2023-01-07T15:23:57.659Z,32.70
2023-01-07T15:26:35.735Z,18.45
2023-01-07T15:29:14.967Z,14.73
2023-01-07T15:31:52.388Z,14.53
2023-01-07T15:34:30.643Z,16.40
2023-01-07T15:37:07.050Z,15.45
2023-01-07T15:39:43.502Z,16.75
2023-01-07T15:42:17.951Z,19.48
2023-01-07T15:44:54.183Z,14.30
2023-01-07T15:47:34.222Z,16.00
2023-01-07T15:50:35.343Z,14.85
2023-01-07T15:53:22.170Z,17.00
2023-01-07T15:55:59.265Z,20.38
2023-01-07T15:58:41.355Z,21.33
2023-01-07T16:01:15.043Z,20.73
2023-01-07T16:03:49.847Z,24.60
2023-01-07T16:06:34.223Z,23.55
2023-01-07T16:09:18.682Z,20.80
2023-01-07T16:11:53.847Z,23.52
2023-01-07T16:14:29.573Z,22.98
2023-01-07T16:17:16.920Z,65.43
2023-01-07T16:19:52.129Z,43.58
2023-01-07T16:22:34.508Z,32.13
2023-01-07T16:25:11.396Z,26.45
2023-01-07T16:27:45.942Z,26.50
2023-01-07T16:30:19.006Z,40.55
2023-01-07T16:32:51.375Z,84.63
2023-01-07T16:35:35.613Z,96.57
2023-01-07T16:38:12.443Z,63.28
2023-01-07T16:40:46.967Z,55.53
2023-01-07T16:43:34.724Z,49.80
2023-01-07T16:46:28.131Z,41.33
2023-01-07T16:49:20.640Z,35.70
2023-01-07T16:51:56.237Z,76.53
2023-01-07T16:54:37.762Z,66.80
2023-01-07T16:57:39.983Z,72.20
2023-01-07T17:00:20.381Z,46.10
2023-01-07T17:02:55.997Z,37.10
2023-01-07T17:05:31.092Z,35.40
2023-01-07T17:08:08.541Z,39.40
2023-01-07T17:11:00.026Z,38.33
2023-01-07T17:13:40.083Z,174.25
2023-01-07T17:16:14.067Z,207.57
2023-01-07T17:18:48.709Z,206.65
2023-01-07T17:21:50.394Z,133.05
2023-01-07T17:24:40.320Z,72.85
2023-01-07T17:27:25.744Z,51.75
2023-01-07T17:29:57.939Z,45.40
2023-01-07T17:32:33.947Z,48.08
2023-01-07T17:35:11.035Z,42.42
2023-01-07T17:37:45.626Z,43.80
2023-01-07T17:40:20.693Z,37.40
2023-01-07T17:43:11.612Z,38.35
2023-01-07T17:45:47.058Z,44.47
2023-01-07T17:48:21.997Z,53.03
2023-01-07T17:50:57.468Z,57.10
2023-01-07T17:53:33.268Z,52.50
2023-01-07T17:56:09.735Z,57.95
2023-01-07T17:58:47.524Z,58.88
2023-01-07T18:01:23.645Z,61.83
2023-01-07T18:03:59.024Z,58.67
2023-01-07T18:06:35.433Z,48.83
2023-01-07T18:09:11.626Z,50.72
2023-01-07T18:11:59.703Z,53.00
2023-01-07T18:14:37.650Z,59.88
2023-01-07T18:17:11.752Z,61.45
2023-01-07T18:19:46.584Z,48.35
2023-01-07T18:22:21.172Z,48.60
2023-01-07T18:24:55.880Z,30.50
2023-01-07T18:27:31.412Z,47.83
2023-01-07T18:30:10.436Z,51.20
2023-01-07T18:32:45.910Z,55.78
2023-01-07T18:35:22.902Z,74.73
2023-01-07T18:37:58.369Z,80.38
2023-01-07T18:40:35.728Z,72.20
2023-01-07T18:43:10.371Z,70.55
2023-01-07T18:45:49.233Z,60.85
2023-01-07T18:48:24.387Z,69.07
2023-01-07T18:51:00.240Z,62.22
2023-01-07T18:53:35.526Z,65.15
2023-01-07T18:56:14.669Z,73.60
2023-01-07T18:58:56.867Z,66.40
2023-01-07T19:01:35.218Z,63.78
2023-01-07T19:04:11.016Z,64.53
2023-01-07T19:06:48.942Z,58.90
2023-01-07T19:09:24.139Z,57.90
2023-01-07T19:11:59.816Z,61.17
2023-01-07T19:14:35.925Z,57.97
2023-01-07T19:17:19.616Z,60.58
2023-01-07T19:19:56.236Z,59.50
2023-01-07T19:22:31.784Z,63.33
2023-01-07T19:25:07.378Z,61.85
2023-01-07T19:27:43.095Z,58.30
2023-01-07T19:33:00.396Z,48.70
2023-01-07T19:35:35.644Z,52.55
2023-01-07T19:38:13.335Z,55.17
2023-01-07T19:40:50.082Z,60.42
2023-01-07T19:43:26.209Z,60.45
2023-01-07T19:48:42.953Z,73.85
2023-01-07T19:51:18.623Z,81.03
2023-01-07T19:53:54.328Z,86.05
2023-01-07T19:56:31.188Z,85.28
2023-01-07T19:59:07.588Z,84.13
2023-01-07T20:01:43.958Z,84.15
2023-01-07T20:04:28.592Z,76.68
2023-01-07T20:07:05.420Z,76.72
2023-01-07T20:09:41.823Z,69.22
2023-01-07T20:12:20.035Z,58.95
2023-01-07T20:14:57.364Z,60.92
2023-01-07T20:17:33.525Z,65.03
2023-01-07T20:22:50.288Z,66.63
2023-01-07T20:25:26.967Z,116.87
2023-01-07T20:28:05.292Z,134.95
2023-01-07T20:30:43.309Z,138.23
2023-01-07T20:33:21.008Z,120.32
2023-01-07T20:35:55.383Z,120.53
2023-01-07T20:38:36.049Z,127.18
2023-01-07T20:41:13.646Z,128.30
2023-01-07T20:43:53.300Z,133.50
2023-01-07T20:46:27.870Z,128.88
2023-01-07T20:49:05.705Z,114.63
2023-01-07T20:51:46.466Z,108.80
2023-01-07T20:54:26.595Z,109.15
2023-01-07T20:57:03.567Z,110.90
2023-01-07T20:59:39.253Z,117.57
2023-01-07T21:02:19.972Z,103.43
2023-01-07T21:04:58.514Z,94.65
2023-01-07T21:07:34.618Z,97.03
2023-01-07T21:12:54.049Z,89.97
2023-01-07T21:15:32.119Z,79.63
2023-01-07T21:18:10.398Z,84.65
2023-01-07T21:20:46.027Z,90.68
2023-01-07T21:23:26.675Z,90.05
2023-01-07T21:26:10.268Z,88.30
2023-01-07T21:28:47.108Z,91.03
2023-01-07T21:31:26.939Z,90.13
2023-01-07T21:34:07.570Z,97.95
2023-01-07T21:36:47.348Z,102.10
2023-01-07T21:39:24.045Z,95.55
2023-01-07T21:42:02.932Z,88.55
2023-01-07T21:44:41.711Z,79.72
2023-01-07T21:47:19.697Z,93.15
2023-01-07T21:50:00.096Z,91.03
2023-01-07T21:52:37.045Z,98.00
2023-01-07T21:55:15.585Z,104.13
2023-01-07T21:57:59.283Z,97.28
2023-01-07T22:00:37.536Z,85.15
2023-01-07T22:03:13.702Z,82.00
2023-01-07T22:06:01.492Z,95.32
2023-01-07T22:08:41.876Z,92.88
2023-01-07T22:11:19.658Z,105.88
2023-01-07T22:13:58.889Z,135.70
2023-01-07T22:16:34.582Z,121.35
2023-01-07T22:19:10.012Z,105.68
2023-01-07T22:21:45.706Z,97.10
2023-01-07T22:24:22.424Z,97.40
2023-01-07T22:26:58.171Z,99.80
2023-01-07T22:29:36.086Z,90.60
2023-01-07T22:32:11.571Z,85.93
2023-01-07T22:34:46.040Z,89.70
2023-01-07T22:37:21.080Z,92.50
2023-01-07T22:39:58.337Z,91.25
2023-01-07T22:42:34.746Z,87.80
2023-01-07T22:45:16.743Z,89.57
2023-01-07T22:47:53.257Z,87.00
2023-01-07T22:50:28.697Z,87.50
2023-01-07T22:53:05.458Z,91.05
2023-01-07T22:55:41.872Z,91.95
2023-01-07T22:58:17.980Z,87.00
2023-01-07T23:01:13.088Z,89.50
2023-01-07T23:03:52.111Z,89.72
2023-01-07T23:06:32.068Z,68.43
2023-01-07T23:09:09.710Z,79.57
2023-01-07T23:11:52.383Z,74.25
2023-01-07T23:14:26.654Z,77.47
2023-01-07T23:17:03.991Z,87.25
2023-01-07T23:19:41.479Z,87.38
2023-01-07T23:22:17.846Z,75.25
2023-01-07T23:24:53.720Z,85.00
2023-01-07T23:27:30.128Z,94.38
2023-01-07T23:30:05.737Z,94.35
2023-01-07T23:32:45.332Z,86.95
2023-01-07T23:35:20.879Z,85.40
2023-01-07T23:37:56.847Z,84.75
2023-01-07T23:40:34.852Z,73.45
2023-01-07T23:43:11.066Z,84.87
2023-01-07T23:48:23.115Z,98.33
2023-01-07T23:50:57.970Z,89.20
2023-01-07T23:53:33.720Z,87.20
2023-01-07T23:56:10.363Z,92.45
2023-01-07T23:58:47.722Z,108.07
